Time;durP1;ratioP1;P1;durP2;ratioP2;P2;SDS_P1;SDS_P2;PMS_P1;PMS_P2;Temp;Humidity;BMP_temperature;BMP_pressure;BME280_temperature;BME280_humidity;BME280_pressure;Samples;Min_cycle;Max_cycle;Signal;HPM_P1;HPM_P2
2023/02/22 00:02:09;;;;;;;5.80;5.18;;;;;;;9.02;83.33;100019.16;10415708;28;20398;-69
2023/02/22 00:07:11;;;;;;;5.43;4.97;;;;;;;9.04;83.09;100020.00;10415530;28;20045;-69
2023/02/22 00:12:13;;;;;;;7.38;5.60;;;;;;;9.33;81.44;100011.34;10415977;28;20042;-69
2023/02/22 00:17:15;;;;;;;5.13;4.63;;;;;;;8.95;83.59;100018.47;10416275;28;20128;-69
2023/02/22 00:22:18;;;;;;;6.10;5.60;;;;;;;8.67;85.19;100013.03;10418776;28;20047;-70
2023/02/22 00:27:20;;;;;;;7.18;5.20;;;;;;;8.51;86.11;100009.94;10424001;28;20049;-69
2023/02/22 00:32:23;;;;;;;4.82;4.40;;;;;;;8.32;87.38;100006.84;10424875;28;20033;-69
2023/02/22 00:37:30;;;;;;;5.97;5.47;;;;;;;8.40;87.20;100006.69;10422112;28;20076;-69
2023/02/22 00:42:32;;;;;;;5.82;5.25;;;;;;;8.39;87.57;100004.97;10421590;28;20132;-69
2023/02/22 00:47:34;;;;;;;5.70;5.15;;;;;;;8.05;88.64;100010.91;10404899;28;20141;-69
2023/02/22 00:52:37;;;;;;;4.97;4.57;;;;;;;7.88;89.83;100002.59;10422815;28;20458;-69
2023/02/22 00:57:39;;;;;;;4.95;4.55;;;;;;;7.91;90.14;100005.13;10423975;28;20547;-69
2023/02/22 01:02:42;;;;;;;5.50;5.00;;;;;;;7.80;90.77;100007.13;10421888;28;20038;-69
2023/02/22 01:07:48;;;;;;;6.50;5.15;;;;;;;7.80;91.73;100000.13;10405451;28;20057;-71
2023/02/22 01:12:50;;;;;;;5.40;4.78;;;;;;;7.67;93.03;100010.88;10422300;28;20041;-71
2023/02/22 01:17:52;;;;;;;6.47;5.82;;;;;;;7.62;93.75;100007.50;10422024;28;20055;-71
2023/02/22 01:22:57;;;;;;;5.90;5.40;;;;;;;7.59;94.39;100003.19;10421303;28;20041;-71
2023/02/22 01:28:01;;;;;;;9.48;6.85;;;;;;;7.78;93.49;100003.66;10421296;28;20045;-71
2023/02/22 01:33:05;;;;;;;6.53;5.95;;;;;;;8.20;90.38;100001.03;10419838;28;20050;-71
2023/02/22 01:38:08;;;;;;;6.28;5.72;;;;;;;8.48;88.26;99998.66;10426599;22;20046;-71
2023/02/22 01:43:29;;;;;;;6.55;5.95;;;;;;;8.62;86.94;99995.69;10420744;28;20113;-70
2023/02/22 01:48:37;;;;;;;7.00;6.40;;;;;;;8.47;88.03;99989.09;10420138;28;20037;-70
2023/02/22 01:53:48;;;;;;;7.10;6.50;;;;;;;8.25;89.71;99991.31;10401817;28;20498;-70
2023/02/22 01:59:00;;;;;;;7.00;6.32;;;;;;;8.23;89.87;99982.59;10401496;28;20049;-70
2023/02/22 02:04:06;;;;;;;7.10;6.50;;;;;;;8.22;90.27;99996.59;10419994;28;20120;-70
2023/02/22 02:09:44;;;;;;;7.35;6.57;;;;;;;8.41;88.37;99983.97;10402189;28;20103;-70
2023/02/22 02:14:46;;;;;;;6.95;6.35;;;;;;;8.36;88.38;99981.44;10415744;28;20053;-70
2023/02/22 02:20:10;;;;;;;8.07;7.38;;;;;;;8.50;88.24;99983.75;10401145;28;20491;-70
2023/02/22 02:25:23;;;;;;;;;;;;;;;8.35;88.95;99975.34;10418981;28;20044;-70
2023/02/22 02:30:28;;;;;;;7.93;7.15;;;;;;;8.26;89.68;99970.31;10419485;28;19920;-70
2023/02/22 02:36:08;;;;;;;7.10;6.40;;;;;;;8.08;91.25;99962.88;10418386;28;20049;-70
2023/02/22 02:41:32;;;;;;;8.43;7.63;;;;;;;8.00;91.94;99957.81;10315410;28;20483;-70
2023/02/22 02:46:55;;;;;;;8.20;7.45;;;;;;;7.98;92.52;99959.63;10330976;28;20052;-71
2023/02/22 02:51:58;;;;;;;8.77;8.07;;;;;;;7.91;93.71;99959.78;10331672;28;20523;-70
2023/02/22 02:57:01;;;;;;;7.97;7.28;;;;;;;7.87;93.73;99961.59;10331830;28;20145;-70
2023/02/22 03:02:44;;;;;;;7.85;7.20;;;;;;;7.90;94.41;99956.31;10331428;28;20056;-70
2023/02/22 03:08:06;;;;;;;9.85;8.95;;;;;;;7.84;94.29;99959.06;10300091;28;20046;-70
2023/02/22 03:13:23;;;;;;;9.55;8.65;;;;;;;7.72;95.45;99951.47;10334689;28;20046;-70
2023/02/22 03:18:34;;;;;;;10.98;9.98;;;;;;;7.71;96.04;99952.38;10399033;28;20096;-70
2023/02/22 03:23:45;;;;;;;9.07;8.27;;;;;;;7.81;94.99;99946.03;10398665;28;20041;-70
2023/02/22 03:28:50;;;;;;;11.30;7.68;;;;;;;7.82;95.00;99942.53;10416025;28;20095;-70
2023/02/22 03:34:01;;;;;;;9.73;8.82;;;;;;;7.93;94.46;99940.53;10398089;28;20465;-70
2023/02/22 03:39:09;;;;;;;8.65;7.95;;;;;;;7.88;94.68;99946.75;10398336;28;20490;-70
2023/02/22 03:44:15;;;;;;;10.68;8.30;;;;;;;7.90;94.95;99945.84;10416112;28;20052;-70
2023/02/22 03:49:40;;;;;;;8.23;7.53;;;;;;;7.88;94.87;99937.16;10397709;28;20046;-71
2023/02/22 03:54:43;;;;;;;7.70;7.05;;;;;;;7.85;94.87;99929.38;10390904;28;20053;-70
2023/02/22 03:59:46;;;;;;;8.68;7.88;;;;;;;7.87;94.73;99940.66;10405297;28;20128;-70
2023/02/22 04:04:47;;;;;;;8.90;8.07;;;;;;;7.87;94.54;99940.66;10424345;28;20052;-70
2023/02/22 04:09:49;;;;;;;12.98;9.65;;;;;;;7.49;95.87;99934.50;10405629;28;20128;-72
2023/02/22 04:14:52;;;;;;;9.77;8.82;;;;;;;7.11;98.20;99934.41;10405465;28;20095;-70
2023/02/22 04:19:54;;;;;;;11.23;10.13;;;;;;;7.19;97.84;99929.91;10405483;28;20045;-70
2023/02/22 04:24:58;;;;;;;8.75;7.85;;;;;;;6.81;99.14;99928.84;10405683;28;20057;-70
2023/02/22 04:30:00;;;;;;;9.45;8.55;;;;;;;6.74;100.00;99929.88;10405010;28;20549;-70
2023/02/22 04:35:05;;;;;;;9.95;7.85;;;;;;;6.94;100.00;99929.50;10404760;28;20455;-71
2023/02/22 04:40:10;;;;;;;9.93;8.93;;;;;;;7.20;98.96;99931.63;10405248;28;20052;-70
2023/02/22 04:45:12;;;;;;;10.95;9.68;;;;;;;7.23;98.83;99927.19;10404930;28;20054;-71
2023/02/22 04:50:15;;;;;;;11.30;10.30;;;;;;;6.95;100.00;99925.97;10404661;28;20530;-70
2023/02/22 04:55:17;;;;;;;10.57;9.57;;;;;;;7.02;100.00;99931.06;10404822;28;20049;-70
2023/02/22 05:00:20;;;;;;;11.93;10.65;;;;;;;7.14;100.00;99930.00;10404077;28;20503;-70
2023/02/22 05:05:22;;;;;;;11.00;9.90;;;;;;;7.16;100.00;99922.97;10404047;28;20454;-71
2023/02/22 05:10:24;;;;;;;10.38;9.38;;;;;;;7.12;100.00;99928.28;10419821;28;20414;-71
2023/02/22 05:15:26;;;;;;;10.95;10.00;;;;;;;7.12;100.00;99929.13;10422211;28;20074;-71
2023/02/22 05:20:33;;;;;;;11.35;10.35;;;;;;;7.11;100.00;99927.44;10421102;28;20042;-70
2023/02/22 05:25:35;;;;;;;10.50;9.50;;;;;;;7.15;100.00;99925.63;10404537;28;20502;-71
2023/02/22 05:30:38;;;;;;;10.60;9.70;;;;;;;7.16;100.00;99925.56;10420357;28;20048;-71
2023/02/22 05:35:40;;;;;;;9.88;8.98;;;;;;;7.14;100.00;99930.00;10421392;28;20132;-71
2023/02/22 05:40:43;;;;;;;9.52;8.73;;;;;;;7.13;100.00;99923.03;10421180;28;20095;-71
2023/02/22 05:45:44;;;;;;;9.95;9.02;;;;;;;7.21;100.00;99918.50;10420152;28;20053;-71
2023/02/22 05:50:48;;;;;;;10.13;9.23;;;;;;;7.25;100.00;99935.84;10419988;28;20509;-71
2023/02/22 05:55:51;;;;;;;11.68;10.48;;;;;;;7.47;100.00;99931.06;10420076;28;20041;-71
2023/02/22 06:00:52;;;;;;;10.57;9.57;;;;;;;7.43;100.00;99933.75;10420268;28;20041;-71
2023/02/22 06:05:54;;;;;;;10.90;9.65;;;;;;;7.46;100.00;99929.34;10402911;28;20046;-71
2023/02/22 06:10:56;;;;;;;10.88;9.88;;;;;;;7.50;100.00;99932.75;10419210;28;20483;-70
2023/02/22 06:15:58;;;;;;;11.00;10.00;;;;;;;7.51;100.00;99939.69;10420125;28;20091;-71
2023/02/22 06:21:00;;;;;;;11.73;9.32;;;;;;;7.45;100.00;99934.59;10422785;28;20041;-71
2023/02/22 06:26:02;;;;;;;12.52;11.13;;;;;;;7.55;100.00;99937.00;10418985;28;20049;-71
2023/02/22 06:31:04;;;;;;;11.82;10.63;;;;;;;7.55;100.00;99937.00;10418025;28;20049;-70
2023/02/22 06:36:06;;;;;;;10.52;9.63;;;;;;;7.51;100.00;99939.69;10400150;28;20415;-70
2023/02/22 06:41:08;;;;;;;10.70;9.80;;;;;;;7.51;100.00;99945.78;10417606;28;20088;-71
2023/02/22 06:46:11;;;;;;;12.23;11.07;;;;;;;7.64;100.00;99945.53;10400225;28;20446;-70
2023/02/22 06:51:13;;;;;;;11.77;10.77;;;;;;;7.71;100.00;99940.16;10418172;28;20395;-70
2023/02/22 06:56:15;;;;;;;12.25;11.10;;;;;;;7.61;100.00;99941.22;10400266;28;20041;-70
2023/02/22 07:01:17;;;;;;;12.85;11.55;;;;;;;7.56;100.00;99956.16;10418398;28;20051;-71
2023/02/22 07:06:19;;;;;;;12.95;11.75;;;;;;;7.81;100.00;99957.38;10401714;28;20496;-71
2023/02/22 07:11:21;;;;;;;13.10;11.85;;;;;;;7.80;100.00;99965.25;10421661;28;20092;-71
2023/02/22 07:16:23;;;;;;;13.88;12.13;;;;;;;7.84;100.00;99959.94;10420158;28;20049;-72
2023/02/22 07:21:25;;;;;;;13.57;12.13;;;;;;;7.84;99.28;99964.31;10417306;28;20033;-71
2023/02/22 07:26:27;;;;;;;15.23;13.05;;;;;;;7.88;99.35;99970.31;10417966;28;20048;-70
2023/02/22 07:31:34;;;;;;;17.00;12.73;;;;;;;7.87;100.00;99971.22;10417092;28;20041;-70
2023/02/22 07:36:36;;;;;;;;;;;;;;;8.22;98.72;99978.28;10443121;22;20498;-69
2023/02/22 07:41:37;;;;;;;12.48;11.18;;;;;;;8.44;96.71;99973.44;10457530;28;19920;-71
2023/02/22 07:46:49;;;;;;;13.07;11.32;;;;;;;8.83;92.53;99971.59;10440529;28;20472;-71
2023/02/22 07:51:50;;;;;;;12.57;11.40;;;;;;;8.92;90.55;99971.34;10436851;28;20097;-71
2023/02/22 07:56:52;;;;;;;13.40;12.20;;;;;;;8.67;91.21;99976.34;10457139;28;20048;-69
2023/02/22 08:01:54;;;;;;;12.43;11.23;;;;;;;8.46;94.29;99969.03;10400972;28;20132;-70
2023/02/22 08:06:56;;;;;;;12.75;11.45;;;;;;;8.91;89.86;99963.53;10417914;28;20415;-70
2023/02/22 08:11:57;;;;;;;14.07;12.40;;;;;;;9.12;86.92;99962.06;10415999;28;20033;-70
2023/02/22 08:16:59;;;;;;;14.05;12.38;;;;;;;8.64;90.10;99962.47;10397433;28;20081;-71
2023/02/22 08:22:01;;;;;;;13.40;11.55;;;;;;;9.02;87.64;99961.47;10414840;28;20446;-70
2023/02/22 08:27:03;;;;;;;13.50;11.80;;;;;;;9.29;85.87;99962.47;10416071;28;20490;-70
2023/02/22 08:32:05;;;;;;;12.88;11.70;;;;;;;9.38;85.08;99966.63;10414810;28;20041;-70
2023/02/22 08:37:07;;;;;;;13.13;11.95;;;;;;;9.38;85.00;99966.63;10414422;28;20041;-70
2023/02/22 08:42:09;;;;;;;12.65;11.43;;;;;;;9.52;84.49;99967.09;10415700;28;20042;-69
2023/02/22 08:47:10;;;;;;;12.85;11.55;;;;;;;9.57;83.52;99963.44;10422972;28;20045;-70
2023/02/22 08:52:12;;;;;;;17.42;13.05;;;;;;;9.67;84.17;99961.41;10423785;28;20380;-70
2023/02/22 08:57:14;;;;;;;12.48;11.18;;;;;;;9.74;84.37;99952.47;10421971;28;20107;-70
2023/02/22 09:02:19;;;;;;;14.18;12.88;;;;;;;10.21;82.67;99959.78;10404055;28;20453;-69
2023/02/22 09:07:21;;;;;;;13.98;12.57;;;;;;;10.00;85.10;99958.66;10424130;28;20456;-70
2023/02/22 09:12:22;;;;;;;12.73;11.43;;;;;;;9.98;82.47;99960.50;10406286;28;20545;-70
2023/02/22 09:17:24;;;;;;;15.15;13.80;;;;;;;9.93;83.97;99960.63;10430788;28;20037;-70
2023/02/22 09:22:26;;;;;;;13.55;12.35;;;;;;;10.19;81.83;99956.34;10461941;28;20087;-70
2023/02/22 09:27:27;;;;;;;14.55;13.32;;;;;;;10.39;80.55;99958.38;10461923;28;20099;-70
2023/02/22 09:32:29;;;;;;;18.60;12.52;;;;;;;10.61;78.81;99952.34;10462665;28;20048;-70
2023/02/22 09:37:31;;;;;;;14.15;12.63;;;;;;;10.51;79.23;99945.69;10459188;28;20041;-71
2023/02/22 09:42:49;;;;;;;13.18;12.07;;;;;;;10.62;79.27;99934.81;10443789;28;20494;-71
2023/02/22 09:47:59;;;;;;;12.23;11.23;;;;;;;11.09;76.47;99927.06;10460943;28;20051;-71
2023/02/22 09:53:29;;;;;;;11.13;10.18;;;;;;;11.10;74.25;99929.63;10460317;28;20067;-70
2023/02/22 09:58:35;;;;;;;11.57;10.55;;;;;;;11.18;74.34;99921.47;10461563;28;20049;-70
2023/02/22 10:03:49;;;;;;;11.07;9.98;;;;;;;11.40;72.89;99920.69;10460344;28;20406;-70
2023/02/22 10:08:55;;;;;;;10.80;9.73;;;;;;;11.70;69.64;99921.31;10460962;28;20076;-70
2023/02/22 10:14:05;;;;;;;11.80;10.17;;;;;;;11.39;71.67;99917.19;10441736;28;20064;-70
2023/02/22 10:19:28;;;;;;;10.65;9.75;;;;;;;11.54;70.39;99913.97;10443461;28;20509;-70
2023/02/22 10:24:29;;;;;;;12.30;11.02;;;;;;;11.30;71.39;99921.03;10460000;28;20037;-70
2023/02/22 10:29:39;;;;;;;11.05;10.05;;;;;;;11.14;72.77;99913.75;10459625;28;20053;-69
2023/02/22 10:34:47;;;;;;;11.25;10.15;;;;;;;11.33;72.69;99912.16;10459806;28;20039;-70
2023/02/22 10:39:52;;;;;;;10.70;9.90;;;;;;;11.51;71.30;99907.97;10460586;28;20040;-69
2023/02/22 10:44:54;;;;;;;11.75;10.65;;;;;;;11.67;70.63;99911.75;10459183;28;20041;-71
2023/02/22 10:49:59;;;;;;;13.00;11.23;;;;;;;11.41;72.48;99891.66;10441639;28;20048;-69
2023/02/22 10:55:02;;;;;;;11.52;10.52;;;;;;;11.38;72.28;99891.81;10440836;28;20080;-69
2023/02/22 11:00:25;;;;;;;10.48;9.57;;;;;;;11.73;71.35;99886.94;10460407;28;20107;-68
2023/02/22 11:05:36;;;;;;;9.60;8.80;;;;;;;11.89;67.51;99880.22;10458018;28;20037;-70
2023/02/22 11:10:38;;;;;;;10.85;9.85;;;;;;;11.73;68.66;99879.06;10457932;28;20128;-69
2023/02/22 11:15:40;;;;;;;10.02;9.02;;;;;;;11.79;69.30;99876.19;10457726;28;20483;-70
2023/02/22 11:20:42;;;;;;;9.55;8.65;;;;;;;11.81;68.45;99877.84;10423086;28;20495;-70
2023/02/22 11:25:43;;;;;;;9.70;8.90;;;;;;;12.09;64.23;99880.28;10417793;28;20045;-71
2023/02/22 11:30:50;;;;;;;9.75;8.80;;;;;;;12.04;66.13;99866.44;10399406;28;20046;-70
2023/02/22 11:36:03;;;;;;;9.90;9.00;;;;;;;12.03;66.84;99863.84;10416540;28;20132;-70
2023/02/22 11:41:05;;;;;;;8.70;8.00;;;;;;;12.21;65.14;99856.97;10415813;28;20322;-71
2023/02/22 11:46:22;;;;;;;8.48;7.85;;;;;;;12.20;64.15;99847.34;10435739;28;20047;-70
2023/02/22 11:51:34;;;;;;;8.82;8.02;;;;;;;12.15;64.14;99846.69;10456516;28;20044;-71
2023/02/22 11:56:43;;;;;;;9.13;6.63;;;;;;;11.92;65.44;99842.38;10456238;28;20068;-70
2023/02/22 12:01:58;;;;;;;6.38;5.90;;;;;;;12.25;62.65;99845.38;10438542;28;20041;-71
2023/02/22 12:07:28;;;;;;;8.35;7.55;;;;;;;12.19;62.04;99835.09;10458382;28;20041;-70
2023/02/22 12:12:33;;;;;;;7.50;6.85;;;;;;;11.93;63.76;99838.81;10438512;28;20037;-71
2023/02/22 12:17:41;;;;;;;7.85;7.25;;;;;;;12.14;64.21;99831.81;10458970;28;20444;-71
2023/02/22 12:23:19;;;;;;;5.10;4.70;;;;;;;12.16;63.14;99836.09;10465599;28;20036;-70
2023/02/22 12:28:27;;;;;;;7.25;6.15;;;;;;;11.67;64.82;99827.50;10466876;28;20123;-71
2023/02/22 12:33:43;;;;;;;5.57;5.07;;;;;;;11.81;64.80;99825.16;10464326;28;20037;-72
2023/02/22 12:38:53;;;;;;;5.78;5.28;;;;;;;12.11;62.74;99828.38;10463969;28;20149;-70
2023/02/22 12:44:19;;;;;;;6.05;5.55;;;;;;;12.40;60.44;99825.44;10463525;28;20067;-70
2023/02/22 12:49:48;;;;;;;6.53;5.97;;;;;;;12.04;63.42;99821.66;10465916;28;20041;-71
2023/02/22 12:54:52;;;;;;;5.70;5.20;;;;;;;12.41;60.94;99816.63;10463239;28;20083;-71
2023/02/22 13:00:00;;;;;;;5.13;4.72;;;;;;;12.12;62.46;99808.13;10463408;28;20045;-70
2023/02/22 13:05:02;;;;;;;4.35;4.05;;;;;;;12.12;61.92;99809.00;10463230;28;20041;-70
2023/02/22 13:10:22;;;;;;;5.00;4.55;;;;;;;12.07;62.87;99803.06;10463035;28;20049;-70
2023/02/22 13:15:34;;;;;;;4.90;4.40;;;;;;;11.91;62.62;99806.38;10447620;28;20045;-70
2023/02/22 13:20:47;;;;;;;4.47;4.05;;;;;;;12.13;61.67;99807.25;10462733;28;20557;-70
2023/02/22 13:26:14;;;;;;;4.35;3.95;;;;;;;12.47;61.37;99808.44;10463079;28;20045;-71
2023/02/22 13:32:01;;;;;;;4.18;3.83;;;;;;;12.67;60.77;99807.59;10462736;28;20367;-70
2023/02/22 13:37:22;;;;;;;4.70;4.30;;;;;;;12.33;61.30;99804.59;10476515;22;20048;-70
2023/02/22 13:42:36;;;;;;;4.47;4.07;;;;;;;12.38;60.78;99807.03;10462610;28;20045;-70
2023/02/22 13:48:01;;;;;;;3.92;3.60;;;;;;;12.05;61.77;99798.78;10462686;28;20121;-72
2023/02/22 13:53:09;;;;;;;3.85;3.50;;;;;;;12.34;61.92;99798.41;10444382;28;20047;-71
2023/02/22 13:58:12;;;;;;;5.05;4.55;;;;;;;12.50;60.13;99797.75;10444606;28;20071;-70
2023/02/22 14:03:13;;;;;;;4.63;4.22;;;;;;;12.15;61.84;99801.91;10443400;28;20076;-72
2023/02/22 14:08:18;;;;;;;4.07;3.78;;;;;;;11.98;62.61;99800.81;10461864;28;20040;-71
2023/02/22 14:13:22;;;;;;;3.67;3.35;;;;;;;12.16;62.17;99800.97;10444114;28;20506;-71
2023/02/22 14:18:26;;;;;;;5.05;3.92;;;;;;;11.92;63.11;99793.19;10462309;28;20041;-72
2023/02/22 14:23:39;;;;;;;3.78;3.47;;;;;;;12.16;61.72;99788.66;10462477;28;20414;-70
2023/02/22 14:28:59;;;;;;;3.97;3.65;;;;;;;11.93;63.21;99784.34;10462717;28;20106;-70
2023/02/22 14:34:01;;;;;;;3.47;3.20;;;;;;;11.93;63.12;99783.50;10463395;28;20053;-70
2023/02/22 14:39:16;;;;;;;3.92;3.63;;;;;;;11.95;63.76;99771.09;10444594;28;20064;-70
2023/02/22 14:44:31;;;;;;;3.75;3.45;;;;;;;12.12;62.41;99774.75;10463713;28;20081;-73
2023/02/22 14:49:39;;;;;;;5.30;3.35;;;;;;;12.12;61.76;99771.25;10443849;28;20072;-70
2023/02/22 14:55:04;;;;;;;3.60;3.30;;;;;;;12.03;62.93;99761.09;10443570;28;20498;-71
2023/02/22 15:00:18;;;;;;;4.10;3.75;;;;;;;11.94;62.38;99757.06;10443088;28;20052;-71
2023/02/22 15:05:20;;;;;;;3.40;3.10;;;;;;;11.82;63.76;99754.91;10460457;28;20406;-71
2023/02/22 15:10:24;;;;;;;4.28;3.72;;;;;;;11.94;63.53;99753.59;10459308;28;20051;-71
2023/02/22 15:15:26;;;;;;;3.90;3.60;;;;;;;11.96;63.03;99754.41;10442252;28;20071;-70
2023/02/22 15:20:28;;;;;;;3.90;3.60;;;;;;;11.72;64.82;99746.53;10458111;28;20045;-71
2023/02/22 15:25:30;;;;;;;3.42;3.15;;;;;;;11.88;63.61;99751.22;10437935;28;20089;-71
2023/02/22 15:30:33;;;;;;;3.80;3.50;;;;;;;12.05;63.30;99744.31;10458363;28;20040;-71
2023/02/22 15:35:35;;;;;;;4.80;4.40;;;;;;;11.88;64.74;99738.91;10459028;28;20048;-71
2023/02/22 15:40:41;;;;;;;8.95;8.18;;;;;;;11.57;71.52;99742.75;10441059;28;20047;-75
2023/02/22 15:45:45;;;;;;;9.70;8.82;;;;;;;11.26;75.18;99739.66;10422001;28;20052;-70
2023/02/22 15:51:07;;;;;;;10.57;9.57;;;;;;;11.19;76.93;99741.66;10452963;28;20041;-70
2023/02/22 15:56:15;;;;;;;9.68;8.88;;;;;;;10.98;78.25;99735.47;10417470;28;20457;-71
2023/02/22 16:01:17;;;;;;;;;;;;;;;10.79;79.07;99732.66;10436355;28;20073;-70
2023/02/22 16:06:27;;;;;;;;;;;;;;;10.87;79.69;99732.38;10440365;28;20525;-71
2023/02/22 16:11:34;;;;;;;;;;;;;;;10.66;81.38;99735.78;10458432;28;19921;-71
2023/02/22 16:16:40;;;;;;;;;;;;;;;10.57;81.35;99729.09;10454966;28;19921;-71
2023/02/22 16:21:52;;;;;;;;;;;;;;;10.57;82.77;99734.34;10399406;28;20031;-71
2023/02/22 16:27:23;;;;;;;;;;;;;;;10.49;84.10;99737.28;10445270;28;19927;-70
2023/02/22 16:32:25;;;;;;;;;;;;;;;10.23;84.92;99739.94;10291176;28;19922;-73
2023/02/22 16:37:35;;;;;;;;;;;;;;;9.89;86.88;99735.84;10274404;28;19922;-70
2023/02/22 16:42:37;;;;;;;;;;;;;;;9.86;88.46;99739.41;10287981;28;19966;-71
2023/02/22 16:47:39;;;;;;;;;;;;;;;9.58;89.89;99739.47;10292189;28;19928;-71
2023/02/22 16:52:40;;;;;;;;;;;;;;;9.41;91.07;99740.91;10291172;28;19933;-71
2023/02/22 16:57:42;;;;;;;;;;;;;;;9.36;91.30;99741.06;10290159;28;19926;-71
2023/02/22 17:02:44;;;;;;;;;;;;;;;9.25;91.89;99738.78;10271624;28;20418;-71
2023/02/22 17:07:46;;;;;;;;;;;;;;;9.16;92.70;99739.06;10387749;28;19921;-71
2023/02/22 17:12:52;;;;;;;;;;;;;;;9.27;93.52;99738.75;10466913;28;20011;-72
2023/02/22 17:17:54;;;;;;;;;;;;;;;9.47;91.79;99744.19;10448143;28;19920;-71
2023/02/22 17:23:00;;;;;;;;;;;;;;;9.22;94.24;99743.28;10464313;28;19920;-71
2023/02/22 17:28:01;;;;;;;;;;;;;;;9.10;94.16;99736.63;10446546;28;20297;-70
2023/02/22 17:33:04;;;;;;;;;;;;;;;9.12;94.29;99741.81;10446779;28;19997;-71
2023/02/22 17:38:07;;;;;;;;;;;;;;;9.06;94.77;99738.47;10464381;28;19986;-71
2023/02/22 17:43:08;;;;;;;;;;;;;;;8.74;95.51;99739.44;10463612;28;20019;-71
2023/02/22 17:48:10;;;;;;;;;;;;;;;8.53;96.96;99743.53;10464212;28;20294;-71
2023/02/22 17:53:12;;;;;;;;;;;;;;;8.62;97.38;99736.31;10464922;28;20386;-70
2023/02/22 17:58:14;;;;;;;;;;;;;;;8.81;95.05;99734.88;10464434;28;20019;-71
2023/02/22 18:03:20;;;;;;;;;;;;;;;8.62;97.41;99731.91;10445723;28;19971;-71
2023/02/22 18:08:23;;;;;;;;;;;;;;;8.44;98.20;99730.69;10463052;28;20343;-70
2023/02/22 18:13:26;;;;;;;;;;;;;;;8.50;98.65;99734.88;10462398;28;19928;-72
2023/02/22 18:18:28;;;;;;;;;;;;;;;8.52;97.63;99723.47;10462909;28;19967;-71
2023/02/22 18:23:30;;;;;;;;;;;;;;;8.43;97.48;99722.88;10463644;28;19975;-71
2023/02/22 18:28:32;;;;;;;;;;;;;;;8.35;97.10;99717.81;10463103;28;19921;-71
2023/02/22 18:33:34;;;;;;;;;;;;;;;8.22;98.11;99726.91;10461210;28;19928;-71
2023/02/22 18:38:42;;;;;;;;;;;;;;;8.34;95.74;99713.47;10460102;28;19966;-71
2023/02/22 18:43:49;;;;;;;;;;;;;;;8.20;96.10;99716.47;10426177;28;19921;-71
2023/02/22 18:48:53;;;;;;;;;;;;;;;8.18;95.08;99713.03;10403834;28;19928;-70
2023/02/22 18:53:58;;;;;;;;;;;;;;;8.10;95.23;99712.38;10403948;28;19925;-71
2023/02/22 18:59:02;;;;;;;;;;;;;;;8.00;94.80;99703.91;10423289;28;19924;-71
2023/02/22 19:04:04;;;;;;;;;;;;;;;7.84;96.27;99700.84;10419600;28;20028;-70
2023/02/22 19:09:07;;;;;;;;;;;;;;;7.82;96.07;99707.00;10419639;28;19921;-71
2023/02/22 19:14:09;;;;;;;;;;;;;;;7.67;96.11;99705.66;10420667;28;19921;-71
2023/02/22 19:19:13;;;;;;;;;;;;;;;7.92;94.50;99699.78;10420239;28;20400;-71
2023/02/22 19:24:18;;;;;;;;;;;;;;;7.79;95.11;99700.13;10419894;28;19925;-71
2023/02/22 19:29:22;;;;;;;;;;;;;;;7.80;95.55;99687.88;10418582;28;20350;-71
2023/02/22 19:34:27;;;;;;;;;;;;;;;7.86;93.79;99687.72;10419599;28;20401;-71
2023/02/22 19:39:30;;;;;;;;;;;;;;;7.59;95.16;99697.13;10458895;22;19930;-73
2023/02/22 19:44:32;;;;;;;;;;;;;;;7.74;94.32;99682.81;10442815;28;19927;-73
2023/02/22 19:49:35;;;;;;;;;;;;;;;7.57;95.15;99691.97;10440325;28;19921;-72
2023/02/22 19:54:37;;;;;;;;;;;;;;;7.47;95.91;99681.75;10458638;28;19921;-72
2023/02/22 19:59:39;;;;;;;;;;;;;;;7.49;96.01;99675.59;10458624;28;19921;-72
2023/02/22 20:04:40;;;;;;;;;;;;;;;7.45;95.75;99679.19;10461175;28;20023;-72
2023/02/22 20:09:42;;;;;;;;;;;;;;;7.41;95.72;99687.13;10457413;28;19924;-73
2023/02/22 20:14:45;;;;;;;;;;;;;;;7.40;95.58;99683.66;10457025;28;19924;-72
2023/02/22 20:19:47;;;;;;;;;;;;;;;7.21;95.92;99680.63;10458069;28;20015;-72
2023/02/22 20:24:49;;;;;;;;;;;;;;;7.52;95.30;99685.94;10459655;28;19924;-73
2023/02/22 20:29:51;;;;;;;;;;;;;;;7.28;95.92;99683.94;10457297;28;19928;-73
2023/02/22 20:34:53;;;;;;;;;;;;;;;6.94;97.63;99679.50;10459645;28;19931;-72
2023/02/22 20:39:54;;;;;;;;;;;;;;;7.06;97.75;99679.22;10460901;28;20385;-73
2023/02/22 20:45:00;;;;;;;;;;;;;;;7.10;97.69;99671.31;10465213;28;20333;-73
2023/02/22 20:50:02;;;;;;;;;;;;;;;7.10;97.47;99671.31;10468085;28;19960;-73
2023/02/22 20:55:05;;;;;;;;;;;;;;;7.35;95.76;99669.84;10464498;28;19954;-73
2023/02/22 21:00:09;;;;;;;;;;;;;;;7.28;96.08;99663.88;10429519;28;20366;-72
2023/02/22 21:05:14;;;;;;;;;;;;;;;7.11;97.01;99671.28;10465010;28;19921;-73
2023/02/22 21:10:21;;;;;;;;;;;;;;;6.93;97.83;99672.56;10468236;28;20396;-72
2023/02/22 21:15:24;;;;;;;;;;;;;;;7.00;97.72;99668.94;10463544;28;19920;-73
2023/02/22 21:20:26;;;;;;;;;;;;;;;6.94;98.18;99657.75;10464039;28;20382;-73
2023/02/22 21:25:30;;;;;;;;;;;;;;;6.72;99.08;99673.03;10462632;28;19921;-73
2023/02/22 21:30:31;;;;;;;;;;;;;;;6.65;99.75;99661.88;10447845;28;19921;-73
2023/02/22 21:35:39;;;;;;;;;;;;;;;6.76;98.24;99656.41;10463536;28;19924;-72
2023/02/22 21:40:41;;;;;;;;;;;;;;;6.61;99.31;99654.13;10445397;28;19928;-72
2023/02/22 21:45:42;;;;;;;;;;;;;;;6.72;100.00;99649.53;10444411;28;20378;-71
2023/02/22 21:50:44;;;;;;;;;;;;;;;6.62;100.00;99642.78;10463961;28;19946;-73
2023/02/22 21:55:45;;;;;;;;;;;;;;;6.70;99.60;99643.50;10463967;28;19966;-71
2023/02/22 22:00:47;;;;;;;;;;;;;;;6.46;100.00;99643.13;10463226;28;19920;-71
2023/02/22 22:05:49;;;;;;;;;;;;;;;6.36;100.00;99641.59;10461157;28;19928;-72
2023/02/22 22:10:53;;;;;;;;;;;;;;;6.30;100.00;99642.59;10461357;28;19966;-72
2023/02/22 22:16:00;;;;;;;;;;;;;;;6.27;100.00;99636.56;10447059;28;19963;-72
2023/02/22 22:21:09;;;;;;;;;;;;;;;6.26;100.00;99640.06;10460995;28;19928;-73
2023/02/22 22:26:11;;;;;;;;;;;;;;;6.27;100.00;99629.59;10446027;28;19927;-71
2023/02/22 22:31:14;;;;;;;;;;;;;;;6.31;100.00;99638.22;10461258;28;20015;-72
2023/02/22 22:36:17;;;;;;;;;;;;;;;6.06;100.00;99630.91;10444538;28;19927;-72
2023/02/22 22:41:20;;;;;;;;;;;;;;;6.26;100.00;99640.06;10444036;28;20294;-72
2023/02/22 22:46:22;;;;;;;;;;;;;;;6.14;100.00;99642.94;10459488;28;19967;-72
2023/02/22 22:51:23;;;;;;;;;;;;;;;6.02;100.00;99639.69;10458854;28;19931;-72
2023/02/22 22:56:25;;;;;;;;;;;;;;;5.95;100.00;99637.22;10445110;28;20381;-71
2023/02/22 23:01:32;;;;;;;;;;;;;;;5.98;100.00;99639.78;10443747;28;19927;-72
2023/02/22 23:06:35;;;;;;;;;;;;;;;6.08;100.00;99649.13;10460832;28;19924;-72
2023/02/22 23:11:38;;;;;;;;;;;;;;;6.05;100.00;99641.34;10458860;28;19921;-72
2023/02/22 23:16:41;;;;;;;;;;;;;;;6.07;100.00;99642.19;10458163;28;19921;-72
2023/02/22 23:21:42;;;;;;;;;;;;;;;6.15;100.00;99648.09;10458135;28;20023;-72
2023/02/22 23:26:47;;;;;;;;;;;;;;;6.11;100.00;99645.59;10457605;28;20297;-72
2023/02/22 23:31:49;;;;;;;;;;;;;;;5.92;100.00;99651.16;10440032;28;19952;-72
2023/02/22 23:36:53;;;;;;;;;;;;;;;5.79;100.00;99647.03;10457325;28;19920;-72
2023/02/22 23:41:57;;;;;;;;;;;;;;;5.72;100.00;99655.88;10459015;28;20359;-72
2023/02/22 23:47:01;;;;;;;;;;;;;;;5.81;100.00;99642.66;10458238;28;19921;-72
2023/02/22 23:52:07;;;;;;;;;;;;;;;5.66;100.00;99641.19;10457511;28;19928;-72
2023/02/22 23:57:08;;;;;;;;;;;;;;;5.54;100.00;99637.06;10457775;28;19943;-72
